sensor_id;sensor_type;location;lat;lon;timestamp;P1;durP1;ratioP1;P2;durP2;ratioP2
11943;SDS011;6031;50.220;10.122;2023-04-25T00:01:03;5.23;;;4.73;;
11943;SDS011;6031;50.220;10.122;2023-04-25T00:03:33;6.47;;;4.80;;
11943;SDS011;6031;50.220;10.122;2023-04-25T00:06:00;6.93;;;4.83;;
11943;SDS011;6031;50.220;10.122;2023-04-25T00:08:29;5.60;;;4.97;;
11943;SDS011;6031;50.220;10.122;2023-04-25T00:10:55;5.63;;;4.87;;
11943;SDS011;6031;50.220;10.122;2023-04-25T00:13:21;7.33;;;4.40;;
11943;SDS011;6031;50.220;10.122;2023-04-25T00:15:47;6.30;;;4.37;;
11943;SDS011;6031;50.220;10.122;2023-04-25T00:18:13;5.23;;;4.43;;
11943;SDS011;6031;50.220;10.122;2023-04-25T00:20:39;5.37;;;4.87;;
11943;SDS011;6031;50.220;10.122;2023-04-25T00:23:05;4.80;;;4.40;;
11943;SDS011;6031;50.220;10.122;2023-04-25T00:25:30;5.30;;;3.90;;
11943;SDS011;6031;50.220;10.122;2023-04-25T00:27:56;4.70;;;4.17;;
11943;SDS011;6031;50.220;10.122;2023-04-25T00:30:22;5.77;;;5.17;;
11943;SDS011;6031;50.220;10.122;2023-04-25T00:32:47;6.13;;;5.30;;
11943;SDS011;6031;50.220;10.122;2023-04-25T00:35:13;5.00;;;4.53;;
11943;SDS011;6031;50.220;10.122;2023-04-25T00:37:39;5.87;;;4.93;;
11943;SDS011;6031;50.220;10.122;2023-04-25T00:40:05;5.13;;;4.30;;
11943;SDS011;6031;50.220;10.122;2023-04-25T00:42:31;5.97;;;4.33;;
11943;SDS011;6031;50.220;10.122;2023-04-25T00:44:58;4.97;;;4.53;;
11943;SDS011;6031;50.220;10.122;2023-04-25T00:47:25;5.03;;;4.53;;
11943;SDS011;6031;50.220;10.122;2023-04-25T00:49:50;4.90;;;4.50;;
11943;SDS011;6031;50.220;10.122;2023-04-25T00:52:18;5.07;;;4.50;;
11943;SDS011;6031;50.220;10.122;2023-04-25T00:54:44;5.57;;;4.97;;
11943;SDS011;6031;50.220;10.122;2023-04-25T00:57:09;6.37;;;5.13;;
11943;SDS011;6031;50.220;10.122;2023-04-25T00:59:36;4.50;;;4.10;;
11943;SDS011;6031;50.220;10.122;2023-04-25T01:02:02;5.10;;;4.70;;
11943;SDS011;6031;50.220;10.122;2023-04-25T01:04:29;5.40;;;4.37;;
11943;SDS011;6031;50.220;10.122;2023-04-25T01:06:54;15.57;;;9.63;;
11943;SDS011;6031;50.220;10.122;2023-04-25T01:09:20;5.07;;;4.57;;
11943;SDS011;6031;50.220;10.122;2023-04-25T01:11:47;5.53;;;4.97;;
11943;SDS011;6031;50.220;10.122;2023-04-25T01:14:14;6.13;;;5.47;;
11943;SDS011;6031;50.220;10.122;2023-04-25T01:16:39;6.20;;;5.17;;
11943;SDS011;6031;50.220;10.122;2023-04-25T01:19:09;5.63;;;5.10;;
11943;SDS011;6031;50.220;10.122;2023-04-25T01:21:39;4.87;;;4.40;;
11943;SDS011;6031;50.220;10.122;2023-04-25T01:24:04;5.73;;;5.13;;
11943;SDS011;6031;50.220;10.122;2023-04-25T01:26:31;5.67;;;5.00;;
11943;SDS011;6031;50.220;10.122;2023-04-25T01:28:57;5.30;;;4.80;;
11943;SDS011;6031;50.220;10.122;2023-04-25T01:31:23;5.30;;;4.80;;
11943;SDS011;6031;50.220;10.122;2023-04-25T01:33:49;5.63;;;5.13;;
11943;SDS011;6031;50.220;10.122;2023-04-25T01:36:15;6.00;;;5.30;;
11943;SDS011;6031;50.220;10.122;2023-04-25T01:38:40;5.37;;;4.87;;
11943;SDS011;6031;50.220;10.122;2023-04-25T01:41:06;6.17;;;5.37;;
11943;SDS011;6031;50.220;10.122;2023-04-25T01:43:32;5.47;;;4.97;;
11943;SDS011;6031;50.220;10.122;2023-04-25T01:45:58;6.10;;;5.30;;
11943;SDS011;6031;50.220;10.122;2023-04-25T01:51:31;6.07;;;4.93;;
11943;SDS011;6031;50.220;10.122;2023-04-25T01:53:57;5.90;;;5.30;;
11943;SDS011;6031;50.220;10.122;2023-04-25T01:56:23;7.87;;;6.13;;
11943;SDS011;6031;50.220;10.122;2023-04-25T01:58:48;6.20;;;5.60;;
11943;SDS011;6031;50.220;10.122;2023-04-25T02:01:14;5.63;;;5.13;;
11943;SDS011;6031;50.220;10.122;2023-04-25T02:03:39;8.53;;;6.20;;
11943;SDS011;6031;50.220;10.122;2023-04-25T02:06:05;7.67;;;6.20;;
11943;SDS011;6031;50.220;10.122;2023-04-25T02:08:31;6.10;;;5.50;;
11943;SDS011;6031;50.220;10.122;2023-04-25T02:10:56;8.70;;;6.00;;
11943;SDS011;6031;50.220;10.122;2023-04-25T02:13:22;5.97;;;5.37;;
11943;SDS011;6031;50.220;10.122;2023-04-25T02:15:48;7.37;;;5.83;;
11943;SDS011;6031;50.220;10.122;2023-04-25T02:18:13;9.00;;;6.90;;
11943;SDS011;6031;50.220;10.122;2023-04-25T02:20:41;6.20;;;5.70;;
11943;SDS011;6031;50.220;10.122;2023-04-25T02:23:07;6.60;;;5.33;;
11943;SDS011;6031;50.220;10.122;2023-04-25T02:25:32;7.50;;;5.83;;
11943;SDS011;6031;50.220;10.122;2023-04-25T02:27:58;7.43;;;6.43;;
11943;SDS011;6031;50.220;10.122;2023-04-25T02:30:23;6.90;;;6.17;;
11943;SDS011;6031;50.220;10.122;2023-04-25T02:32:49;6.40;;;5.80;;
11943;SDS011;6031;50.220;10.122;2023-04-25T02:35:14;6.93;;;5.80;;
11943;SDS011;6031;50.220;10.122;2023-04-25T02:37:40;7.33;;;6.07;;
11943;SDS011;6031;50.220;10.122;2023-04-25T02:40:07;6.67;;;5.73;;
11943;SDS011;6031;50.220;10.122;2023-04-25T02:42:33;6.00;;;5.40;;
11943;SDS011;6031;50.220;10.122;2023-04-25T02:44:58;6.57;;;5.97;;
11943;SDS011;6031;50.220;10.122;2023-04-25T02:47:24;6.60;;;5.50;;
11943;SDS011;6031;50.220;10.122;2023-04-25T02:49:49;8.13;;;6.57;;
11943;SDS011;6031;50.220;10.122;2023-04-25T02:52:14;10.47;;;6.50;;
11943;SDS011;6031;50.220;10.122;2023-04-25T02:54:40;8.43;;;7.40;;
11943;SDS011;6031;50.220;10.122;2023-04-25T02:57:06;11.63;;;6.57;;
11943;SDS011;6031;50.220;10.122;2023-04-25T02:59:33;5.83;;;5.20;;
11943;SDS011;6031;50.220;10.122;2023-04-25T03:01:59;7.50;;;5.90;;
11943;SDS011;6031;50.220;10.122;2023-04-25T03:04:24;6.53;;;5.20;;
11943;SDS011;6031;50.220;10.122;2023-04-25T03:06:50;5.80;;;5.20;;
11943;SDS011;6031;50.220;10.122;2023-04-25T03:09:16;7.57;;;5.93;;
11943;SDS011;6031;50.220;10.122;2023-04-25T03:11:41;7.17;;;5.53;;
11943;SDS011;6031;50.220;10.122;2023-04-25T03:14:08;5.40;;;4.83;;
11943;SDS011;6031;50.220;10.122;2023-04-25T03:16:34;6.53;;;5.57;;
11943;SDS011;6031;50.220;10.122;2023-04-25T03:19:00;5.10;;;4.60;;
11943;SDS011;6031;50.220;10.122;2023-04-25T03:21:25;5.23;;;4.77;;
11943;SDS011;6031;50.220;10.122;2023-04-25T03:23:51;6.10;;;5.17;;
11943;SDS011;6031;50.220;10.122;2023-04-25T03:26:17;4.60;;;4.20;;
11943;SDS011;6031;50.220;10.122;2023-04-25T03:28:42;6.57;;;5.33;;
11943;SDS011;6031;50.220;10.122;2023-04-25T03:31:08;6.77;;;4.97;;
11943;SDS011;6031;50.220;10.122;2023-04-25T03:33:33;5.57;;;4.60;;
11943;SDS011;6031;50.220;10.122;2023-04-25T03:35:58;5.33;;;4.80;;
11943;SDS011;6031;50.220;10.122;2023-04-25T03:38:24;6.00;;;4.70;;
11943;SDS011;6031;50.220;10.122;2023-04-25T03:40:50;6.13;;;5.53;;
11943;SDS011;6031;50.220;10.122;2023-04-25T03:43:16;6.60;;;5.23;;
11943;SDS011;6031;50.220;10.122;2023-04-25T03:45:42;5.73;;;5.10;;
11943;SDS011;6031;50.220;10.122;2023-04-25T03:48:07;6.83;;;5.37;;
11943;SDS011;6031;50.220;10.122;2023-04-25T03:50:33;5.97;;;5.13;;
11943;SDS011;6031;50.220;10.122;2023-04-25T03:52:58;6.63;;;5.33;;
11943;SDS011;6031;50.220;10.122;2023-04-25T03:55:24;6.43;;;5.53;;
11943;SDS011;6031;50.220;10.122;2023-04-25T03:57:49;6.70;;;5.60;;
11943;SDS011;6031;50.220;10.122;2023-04-25T04:00:15;6.60;;;6.00;;
11943;SDS011;6031;50.220;10.122;2023-04-25T04:02:40;7.33;;;6.43;;
11943;SDS011;6031;50.220;10.122;2023-04-25T04:05:06;7.60;;;6.80;;
11943;SDS011;6031;50.220;10.122;2023-04-25T04:07:32;8.00;;;7.07;;
11943;SDS011;6031;50.220;10.122;2023-04-25T04:09:58;9.70;;;7.13;;
11943;SDS011;6031;50.220;10.122;2023-04-25T04:12:24;7.80;;;7.00;;
11943;SDS011;6031;50.220;10.122;2023-04-25T04:14:49;8.30;;;7.30;;
11943;SDS011;6031;50.220;10.122;2023-04-25T04:17:15;9.97;;;7.20;;
11943;SDS011;6031;50.220;10.122;2023-04-25T04:19:40;12.10;;;8.63;;
11943;SDS011;6031;50.220;10.122;2023-04-25T04:22:06;9.37;;;7.57;;
11943;SDS011;6031;50.220;10.122;2023-04-25T04:24:32;9.53;;;7.53;;
11943;SDS011;6031;50.220;10.122;2023-04-25T04:26:57;11.17;;;8.13;;
11943;SDS011;6031;50.220;10.122;2023-04-25T04:29:23;9.73;;;8.17;;
11943;SDS011;6031;50.220;10.122;2023-04-25T04:31:49;10.57;;;7.70;;
11943;SDS011;6031;50.220;10.122;2023-04-25T04:34:16;11.77;;;8.57;;
11943;SDS011;6031;50.220;10.122;2023-04-25T04:36:43;12.13;;;8.80;;
11943;SDS011;6031;50.220;10.122;2023-04-25T04:39:11;11.50;;;8.23;;
11943;SDS011;6031;50.220;10.122;2023-04-25T04:41:37;11.20;;;8.07;;
11943;SDS011;6031;50.220;10.122;2023-04-25T04:44:02;15.40;;;10.00;;
11943;SDS011;6031;50.220;10.122;2023-04-25T04:46:28;10.03;;;8.03;;
11943;SDS011;6031;50.220;10.122;2023-04-25T04:48:53;10.30;;;8.93;;
11943;SDS011;6031;50.220;10.122;2023-04-25T04:51:21;11.23;;;9.13;;
11943;SDS011;6031;50.220;10.122;2023-04-25T04:53:46;11.63;;;9.27;;
11943;SDS011;6031;50.220;10.122;2023-04-25T04:56:12;11.53;;;8.93;;
11943;SDS011;6031;50.220;10.122;2023-04-25T04:58:37;12.53;;;9.83;;
11943;SDS011;6031;50.220;10.122;2023-04-25T05:01:03;11.47;;;8.90;;
11943;SDS011;6031;50.220;10.122;2023-04-25T05:03:28;10.23;;;8.23;;
11943;SDS011;6031;50.220;10.122;2023-04-25T05:05:54;8.60;;;7.70;;
11943;SDS011;6031;50.220;10.122;2023-04-25T05:08:20;15.03;;;9.33;;
11943;SDS011;6031;50.220;10.122;2023-04-25T05:10:45;11.73;;;8.63;;
11943;SDS011;6031;50.220;10.122;2023-04-25T05:13:11;11.00;;;9.00;;
11943;SDS011;6031;50.220;10.122;2023-04-25T05:15:36;14.03;;;9.90;;
11943;SDS011;6031;50.220;10.122;2023-04-25T05:18:02;11.80;;;8.83;;
11943;SDS011;6031;50.220;10.122;2023-04-25T05:20:28;10.60;;;9.10;;
11943;SDS011;6031;50.220;10.122;2023-04-25T05:22:53;9.03;;;8.00;;
11943;SDS011;6031;50.220;10.122;2023-04-25T05:25:20;11.80;;;8.97;;
11943;SDS011;6031;50.220;10.122;2023-04-25T05:27:45;13.20;;;9.17;;
11943;SDS011;6031;50.220;10.122;2023-04-25T05:30:11;15.07;;;9.47;;
11943;SDS011;6031;50.220;10.122;2023-04-25T05:32:36;11.43;;;8.93;;
11943;SDS011;6031;50.220;10.122;2023-04-25T05:35:02;11.03;;;8.67;;
11943;SDS011;6031;50.220;10.122;2023-04-25T05:37:28;11.03;;;8.53;;
11943;SDS011;6031;50.220;10.122;2023-04-25T05:39:55;10.57;;;8.27;;
11943;SDS011;6031;50.220;10.122;2023-04-25T05:42:21;10.03;;;7.77;;
11943;SDS011;6031;50.220;10.122;2023-04-25T05:44:46;12.03;;;8.73;;
11943;SDS011;6031;50.220;10.122;2023-04-25T05:47:12;9.37;;;7.80;;
11943;SDS011;6031;50.220;10.122;2023-04-25T05:49:37;8.83;;;7.20;;
11943;SDS011;6031;50.220;10.122;2023-04-25T05:52:03;13.30;;;7.87;;
11943;SDS011;6031;50.220;10.122;2023-04-25T05:54:28;10.37;;;7.57;;
11943;SDS011;6031;50.220;10.122;2023-04-25T05:56:55;7.53;;;6.60;;
11943;SDS011;6031;50.220;10.122;2023-04-25T05:59:21;8.67;;;6.47;;
11943;SDS011;6031;50.220;10.122;2023-04-25T06:01:47;7.63;;;5.90;;
11943;SDS011;6031;50.220;10.122;2023-04-25T06:04:12;6.87;;;5.53;;
11943;SDS011;6031;50.220;10.122;2023-04-25T06:06:38;6.90;;;4.97;;
11943;SDS011;6031;50.220;10.122;2023-04-25T06:09:03;7.23;;;5.27;;
11943;SDS011;6031;50.220;10.122;2023-04-25T06:11:29;8.47;;;5.50;;
11943;SDS011;6031;50.220;10.122;2023-04-25T06:13:54;8.03;;;5.30;;
11943;SDS011;6031;50.220;10.122;2023-04-25T06:16:20;6.13;;;4.80;;
11943;SDS011;6031;50.220;10.122;2023-04-25T06:18:45;7.70;;;3.83;;
11943;SDS011;6031;50.220;10.122;2023-04-25T06:21:11;5.10;;;4.50;;
11943;SDS011;6031;50.220;10.122;2023-04-25T06:23:36;4.80;;;4.40;;
11943;SDS011;6031;50.220;10.122;2023-04-25T06:26:02;7.40;;;4.17;;
11943;SDS011;6031;50.220;10.122;2023-04-25T06:28:28;6.83;;;4.77;;
11943;SDS011;6031;50.220;10.122;2023-04-25T06:30:53;6.47;;;4.63;;
11943;SDS011;6031;50.220;10.122;2023-04-25T06:33:19;6.50;;;4.10;;
11943;SDS011;6031;50.220;10.122;2023-04-25T06:35:46;7.70;;;4.53;;
11943;SDS011;6031;50.220;10.122;2023-04-25T06:38:11;5.47;;;4.30;;
11943;SDS011;6031;50.220;10.122;2023-04-25T06:40:37;5.33;;;4.13;;
11943;SDS011;6031;50.220;10.122;2023-04-25T06:43:03;4.97;;;4.07;;
11943;SDS011;6031;50.220;10.122;2023-04-25T06:45:29;3.63;;;3.13;;
11943;SDS011;6031;50.220;10.122;2023-04-25T06:47:55;4.03;;;3.60;;
11943;SDS011;6031;50.220;10.122;2023-04-25T06:50:20;3.53;;;3.20;;
11943;SDS011;6031;50.220;10.122;2023-04-25T06:52:46;5.77;;;3.60;;
11943;SDS011;6031;50.220;10.122;2023-04-25T06:55:13;4.27;;;3.13;;
11943;SDS011;6031;50.220;10.122;2023-04-25T06:57:38;5.43;;;3.30;;
11943;SDS011;6031;50.220;10.122;2023-04-25T07:00:04;3.53;;;3.10;;
11943;SDS011;6031;50.220;10.122;2023-04-25T07:02:33;6.10;;;3.33;;
11943;SDS011;6031;50.220;10.122;2023-04-25T07:04:58;3.03;;;2.83;;
11943;SDS011;6031;50.220;10.122;2023-04-25T07:07:24;3.80;;;3.17;;
11943;SDS011;6031;50.220;10.122;2023-04-25T07:09:50;4.93;;;3.70;;
11943;SDS011;6031;50.220;10.122;2023-04-25T07:12:16;3.57;;;3.23;;
11943;SDS011;6031;50.220;10.122;2023-04-25T07:14:42;2.70;;;2.50;;
11943;SDS011;6031;50.220;10.122;2023-04-25T07:17:07;6.60;;;3.30;;
11943;SDS011;6031;50.220;10.122;2023-04-25T07:19:33;2.53;;;2.33;;
11943;SDS011;6031;50.220;10.122;2023-04-25T07:21:58;2.93;;;2.73;;
11943;SDS011;6031;50.220;10.122;2023-04-25T07:24:24;2.43;;;2.23;;
11943;SDS011;6031;50.220;10.122;2023-04-25T07:26:49;3.20;;;2.90;;
11943;SDS011;6031;50.220;10.122;2023-04-25T07:29:15;2.17;;;2.03;;
11943;SDS011;6031;50.220;10.122;2023-04-25T07:31:40;4.30;;;2.40;;
11943;SDS011;6031;50.220;10.122;2023-04-25T07:34:06;2.03;;;1.83;;
11943;SDS011;6031;50.220;10.122;2023-04-25T07:36:32;5.67;;;2.73;;
11943;SDS011;6031;50.220;10.122;2023-04-25T07:38:57;2.07;;;1.97;;
11943;SDS011;6031;50.220;10.122;2023-04-25T07:41:23;1.97;;;1.87;;
11943;SDS011;6031;50.220;10.122;2023-04-25T07:43:48;2.33;;;1.57;;
11943;SDS011;6031;50.220;10.122;2023-04-25T07:46:14;1.97;;;1.87;;
11943;SDS011;6031;50.220;10.122;2023-04-25T07:48:40;2.77;;;2.07;;
11943;SDS011;6031;50.220;10.122;2023-04-25T07:51:05;2.40;;;2.20;;
11943;SDS011;6031;50.220;10.122;2023-04-25T07:53:32;3.20;;;2.00;;
11943;SDS011;6031;50.220;10.122;2023-04-25T07:55:59;1.80;;;1.60;;
11943;SDS011;6031;50.220;10.122;2023-04-25T07:58:25;5.97;;;2.03;;
11943;SDS011;6031;50.220;10.122;2023-04-25T08:00:51;2.87;;;1.90;;
11943;SDS011;6031;50.220;10.122;2023-04-25T08:03:16;2.57;;;1.70;;
11943;SDS011;6031;50.220;10.122;2023-04-25T08:05:42;1.50;;;1.40;;
11943;SDS011;6031;50.220;10.122;2023-04-25T08:08:07;2.23;;;1.90;;
11943;SDS011;6031;50.220;10.122;2023-04-25T08:10:33;4.70;;;2.37;;
11943;SDS011;6031;50.220;10.122;2023-04-25T08:12:59;1.87;;;1.77;;
11943;SDS011;6031;50.220;10.122;2023-04-25T08:15:24;1.90;;;1.80;;
11943;SDS011;6031;50.220;10.122;2023-04-25T08:17:51;2.20;;;2.00;;
11943;SDS011;6031;50.220;10.122;2023-04-25T08:20:16;3.23;;;2.20;;
11943;SDS011;6031;50.220;10.122;2023-04-25T08:22:42;1.90;;;1.77;;
11943;SDS011;6031;50.220;10.122;2023-04-25T08:25:08;2.00;;;1.60;;
11943;SDS011;6031;50.220;10.122;2023-04-25T08:27:33;3.67;;;1.47;;
11943;SDS011;6031;50.220;10.122;2023-04-25T08:29:59;1.20;;;1.20;;
11943;SDS011;6031;50.220;10.122;2023-04-25T08:32:24;2.93;;;1.80;;
11943;SDS011;6031;50.220;10.122;2023-04-25T08:34:50;1.67;;;1.33;;
11943;SDS011;6031;50.220;10.122;2023-04-25T08:37:18;1.37;;;1.13;;
11943;SDS011;6031;50.220;10.122;2023-04-25T08:39:44;2.07;;;1.43;;
11943;SDS011;6031;50.220;10.122;2023-04-25T08:42:10;2.00;;;1.67;;
11943;SDS011;6031;50.220;10.122;2023-04-25T08:44:37;1.53;;;1.43;;
11943;SDS011;6031;50.220;10.122;2023-04-25T08:47:03;2.03;;;1.93;;
11943;SDS011;6031;50.220;10.122;2023-04-25T08:49:33;2.00;;;1.90;;
11943;SDS011;6031;50.220;10.122;2023-04-25T08:52:03;2.37;;;1.80;;
11943;SDS011;6031;50.220;10.122;2023-04-25T08:54:32;1.80;;;1.70;;
11943;SDS011;6031;50.220;10.122;2023-04-25T08:57:00;1.47;;;1.40;;
11943;SDS011;6031;50.220;10.122;2023-04-25T08:59:27;1.70;;;1.60;;
11943;SDS011;6031;50.220;10.122;2023-04-25T09:01:53;2.47;;;1.70;;
11943;SDS011;6031;50.220;10.122;2023-04-25T09:04:18;1.70;;;1.60;;
11943;SDS011;6031;50.220;10.122;2023-04-25T09:06:45;1.90;;;1.80;;
11943;SDS011;6031;50.220;10.122;2023-04-25T09:09:11;2.53;;;1.67;;
11943;SDS011;6031;50.220;10.122;2023-04-25T09:11:37;1.60;;;1.50;;
11943;SDS011;6031;50.220;10.122;2023-04-25T09:14:12;2.67;;;1.80;;
11943;SDS011;6031;50.220;10.122;2023-04-25T09:19:22;2.00;;;1.80;;
11943;SDS011;6031;50.220;10.122;2023-04-25T09:21:50;1.63;;;1.53;;
11943;SDS011;6031;50.220;10.122;2023-04-25T09:24:15;1.97;;;1.87;;
11943;SDS011;6031;50.220;10.122;2023-04-25T09:26:44;2.43;;;1.90;;
11943;SDS011;6031;50.220;10.122;2023-04-25T09:29:09;1.90;;;1.80;;
11943;SDS011;6031;50.220;10.122;2023-04-25T09:31:35;2.20;;;1.53;;
11943;SDS011;6031;50.220;10.122;2023-04-25T09:34:01;1.60;;;1.50;;
11943;SDS011;6031;50.220;10.122;2023-04-25T09:36:27;1.50;;;1.30;;
11943;SDS011;6031;50.220;10.122;2023-04-25T09:38:53;2.83;;;1.90;;
11943;SDS011;6031;50.220;10.122;2023-04-25T09:41:22;3.07;;;1.87;;
11943;SDS011;6031;50.220;10.122;2023-04-25T09:43:49;1.67;;;1.57;;
11943;SDS011;6031;50.220;10.122;2023-04-25T09:46:15;1.53;;;1.43;;
11943;SDS011;6031;50.220;10.122;2023-04-25T09:48:43;2.73;;;2.00;;
11943;SDS011;6031;50.220;10.122;2023-04-25T09:51:14;2.23;;;2.03;;
11943;SDS011;6031;50.220;10.122;2023-04-25T09:53:40;2.13;;;1.50;;
11943;SDS011;6031;50.220;10.122;2023-04-25T09:56:10;2.50;;;1.87;;
11943;SDS011;6031;50.220;10.122;2023-04-25T09:58:37;1.43;;;1.33;;
11943;SDS011;6031;50.220;10.122;2023-04-25T10:01:07;2.53;;;1.90;;
11943;SDS011;6031;50.220;10.122;2023-04-25T10:03:35;2.23;;;2.03;;
11943;SDS011;6031;50.220;10.122;2023-04-25T10:06:08;2.87;;;2.00;;
11943;SDS011;6031;50.220;10.122;2023-04-25T10:08:39;1.77;;;1.67;;
11943;SDS011;6031;50.220;10.122;2023-04-25T10:11:06;1.80;;;1.70;;
11943;SDS011;6031;50.220;10.122;2023-04-25T10:13:33;1.90;;;1.60;;
11943;SDS011;6031;50.220;10.122;2023-04-25T10:16:00;1.70;;;1.60;;
11943;SDS011;6031;50.220;10.122;2023-04-25T10:18:27;1.40;;;1.30;;
11943;SDS011;6031;50.220;10.122;2023-04-25T10:20:54;3.73;;;2.20;;
11943;SDS011;6031;50.220;10.122;2023-04-25T10:23:24;1.47;;;1.37;;
11943;SDS011;6031;50.220;10.122;2023-04-25T10:25:51;1.60;;;1.47;;
11943;SDS011;6031;50.220;10.122;2023-04-25T10:28:17;2.50;;;1.77;;
11943;SDS011;6031;50.220;10.122;2023-04-25T10:31:02;1.90;;;1.80;;
11943;SDS011;6031;50.220;10.122;2023-04-25T10:33:33;2.40;;;1.80;;
11943;SDS011;6031;50.220;10.122;2023-04-25T10:36:08;1.97;;;1.30;;
11943;SDS011;6031;50.220;10.122;2023-04-25T10:38:44;2.40;;;1.63;;
11943;SDS011;6031;50.220;10.122;2023-04-25T10:41:11;1.87;;;1.77;;
11943;SDS011;6031;50.220;10.122;2023-04-25T10:46:22;1.53;;;1.43;;
11943;SDS011;6031;50.220;10.122;2023-04-25T10:48:51;1.80;;;1.70;;
11943;SDS011;6031;50.220;10.122;2023-04-25T10:51:18;3.97;;;1.97;;
11943;SDS011;6031;50.220;10.122;2023-04-25T10:56:32;1.63;;;1.53;;
11943;SDS011;6031;50.220;10.122;2023-04-25T10:59:06;2.23;;;2.00;;
11943;SDS011;6031;50.220;10.122;2023-04-25T11:01:43;2.57;;;2.13;;
11943;SDS011;6031;50.220;10.122;2023-04-25T11:04:19;3.10;;;2.37;;
11943;SDS011;6031;50.220;10.122;2023-04-25T11:09:25;1.67;;;1.53;;
11943;SDS011;6031;50.220;10.122;2023-04-25T11:11:54;3.30;;;3.00;;
11943;SDS011;6031;50.220;10.122;2023-04-25T11:14:21;1.67;;;1.57;;
11943;SDS011;6031;50.220;10.122;2023-04-25T11:16:47;1.60;;;1.50;;
11943;SDS011;6031;50.220;10.122;2023-04-25T11:19:19;2.13;;;1.57;;
11943;SDS011;6031;50.220;10.122;2023-04-25T11:21:45;1.53;;;1.43;;
11943;SDS011;6031;50.220;10.122;2023-04-25T11:24:10;1.93;;;1.83;;
11943;SDS011;6031;50.220;10.122;2023-04-25T11:26:36;2.63;;;1.60;;
11943;SDS011;6031;50.220;10.122;2023-04-25T11:29:02;1.93;;;1.60;;
11943;SDS011;6031;50.220;10.122;2023-04-25T11:31:28;1.60;;;1.50;;
11943;SDS011;6031;50.220;10.122;2023-04-25T11:33:56;1.87;;;1.73;;
11943;SDS011;6031;50.220;10.122;2023-04-25T11:36:25;3.77;;;1.83;;
11943;SDS011;6031;50.220;10.122;2023-04-25T11:38:51;2.67;;;2.10;;
11943;SDS011;6031;50.220;10.122;2023-04-25T11:41:20;1.83;;;1.53;;
11943;SDS011;6031;50.220;10.122;2023-04-25T11:43:47;1.83;;;1.70;;
11943;SDS011;6031;50.220;10.122;2023-04-25T11:46:13;1.47;;;1.40;;
11943;SDS011;6031;50.220;10.122;2023-04-25T11:48:39;1.80;;;1.70;;
11943;SDS011;6031;50.220;10.122;2023-04-25T11:51:06;1.33;;;1.30;;
11943;SDS011;6031;50.220;10.122;2023-04-25T11:53:31;4.83;;;1.40;;
11943;SDS011;6031;50.220;10.122;2023-04-25T11:55:57;1.97;;;1.33;;
11943;SDS011;6031;50.220;10.122;2023-04-25T11:58:23;1.83;;;1.73;;
11943;SDS011;6031;50.220;10.122;2023-04-25T12:00:48;1.60;;;1.50;;
11943;SDS011;6031;50.220;10.122;2023-04-25T12:03:14;2.63;;;1.67;;
11943;SDS011;6031;50.220;10.122;2023-04-25T12:05:39;2.47;;;1.50;;
11943;SDS011;6031;50.220;10.122;2023-04-25T12:08:12;1.80;;;1.70;;
11943;SDS011;6031;50.220;10.122;2023-04-25T12:10:38;3.10;;;1.70;;
11943;SDS011;6031;50.220;10.122;2023-04-25T12:13:21;2.57;;;1.77;;
11943;SDS011;6031;50.220;10.122;2023-04-25T12:15:48;2.30;;;2.10;;
11943;SDS011;6031;50.220;10.122;2023-04-25T12:18:14;2.70;;;1.87;;
11943;SDS011;6031;50.220;10.122;2023-04-25T12:20:43;1.70;;;1.60;;
11943;SDS011;6031;50.220;10.122;2023-04-25T12:23:08;1.80;;;1.70;;
11943;SDS011;6031;50.220;10.122;2023-04-25T12:28:16;2.17;;;1.97;;
11943;SDS011;6031;50.220;10.122;2023-04-25T12:30:53;2.73;;;2.50;;
11943;SDS011;6031;50.220;10.122;2023-04-25T12:33:30;4.03;;;2.60;;
11943;SDS011;6031;50.220;10.122;2023-04-25T12:36:03;1.87;;;1.67;;
11943;SDS011;6031;50.220;10.122;2023-04-25T12:38:35;3.47;;;1.90;;
11943;SDS011;6031;50.220;10.122;2023-04-25T12:41:02;1.67;;;1.57;;
11943;SDS011;6031;50.220;10.122;2023-04-25T12:43:28;2.80;;;1.83;;
11943;SDS011;6031;50.220;10.122;2023-04-25T12:45:54;2.30;;;1.87;;
11943;SDS011;6031;50.220;10.122;2023-04-25T12:48:20;1.27;;;1.17;;
11943;SDS011;6031;50.220;10.122;2023-04-25T12:50:47;1.83;;;1.27;;
11943;SDS011;6031;50.220;10.122;2023-04-25T12:53:16;1.87;;;1.57;;
11943;SDS011;6031;50.220;10.122;2023-04-25T12:55:43;1.70;;;1.60;;
11943;SDS011;6031;50.220;10.122;2023-04-25T12:58:15;2.17;;;1.23;;
11943;SDS011;6031;50.220;10.122;2023-04-25T13:00:42;4.00;;;1.60;;
11943;SDS011;6031;50.220;10.122;2023-04-25T13:03:08;1.43;;;1.33;;
11943;SDS011;6031;50.220;10.122;2023-04-25T13:05:36;3.20;;;2.37;;
11943;SDS011;6031;50.220;10.122;2023-04-25T13:08:02;2.53;;;1.90;;
11943;SDS011;6031;50.220;10.122;2023-04-25T13:10:27;3.57;;;2.10;;
11943;SDS011;6031;50.220;10.122;2023-04-25T13:12:53;2.07;;;1.73;;
11943;SDS011;6031;50.220;10.122;2023-04-25T13:15:18;2.27;;;1.47;;
11943;SDS011;6031;50.220;10.122;2023-04-25T13:17:44;1.83;;;1.60;;
11943;SDS011;6031;50.220;10.122;2023-04-25T13:20:10;3.70;;;1.70;;
11943;SDS011;6031;50.220;10.122;2023-04-25T13:22:37;1.90;;;1.80;;
11943;SDS011;6031;50.220;10.122;2023-04-25T13:25:03;3.23;;;1.67;;
11943;SDS011;6031;50.220;10.122;2023-04-25T13:27:30;2.83;;;1.50;;
11943;SDS011;6031;50.220;10.122;2023-04-25T13:29:57;2.80;;;1.90;;
11943;SDS011;6031;50.220;10.122;2023-04-25T13:32:23;1.80;;;1.70;;
11943;SDS011;6031;50.220;10.122;2023-04-25T13:34:50;3.30;;;1.87;;
11943;SDS011;6031;50.220;10.122;2023-04-25T13:37:16;5.00;;;2.30;;
11943;SDS011;6031;50.220;10.122;2023-04-25T13:39:42;4.23;;;2.53;;
11943;SDS011;6031;50.220;10.122;2023-04-25T13:42:07;3.03;;;2.50;;
11943;SDS011;6031;50.220;10.122;2023-04-25T13:44:33;5.03;;;3.07;;
11943;SDS011;6031;50.220;10.122;2023-04-25T13:46:58;5.27;;;3.10;;
11943;SDS011;6031;50.220;10.122;2023-04-25T13:49:25;4.80;;;3.40;;
11943;SDS011;6031;50.220;10.122;2023-04-25T13:51:51;3.97;;;2.23;;
11943;SDS011;6031;50.220;10.122;2023-04-25T13:54:16;7.27;;;2.50;;
11943;SDS011;6031;50.220;10.122;2023-04-25T13:56:42;4.23;;;2.33;;
11943;SDS011;6031;50.220;10.122;2023-04-25T13:59:07;3.73;;;2.13;;
11943;SDS011;6031;50.220;10.122;2023-04-25T14:01:33;3.60;;;2.07;;
11943;SDS011;6031;50.220;10.122;2023-04-25T14:04:00;3.33;;;2.37;;
11943;SDS011;6031;50.220;10.122;2023-04-25T14:06:29;3.67;;;2.10;;
11943;SDS011;6031;50.220;10.122;2023-04-25T14:08:56;5.20;;;2.53;;
11943;SDS011;6031;50.220;10.122;2023-04-25T14:11:21;5.17;;;2.23;;
11943;SDS011;6031;50.220;10.122;2023-04-25T14:13:47;1.97;;;1.77;;
11943;SDS011;6031;50.220;10.122;2023-04-25T14:16:14;3.63;;;2.60;;
11943;SDS011;6031;50.220;10.122;2023-04-25T14:18:40;4.40;;;2.77;;
11943;SDS011;6031;50.220;10.122;2023-04-25T14:21:06;4.47;;;2.10;;
11943;SDS011;6031;50.220;10.122;2023-04-25T14:23:31;3.03;;;1.90;;
11943;SDS011;6031;50.220;10.122;2023-04-25T14:25:57;4.73;;;3.33;;
11943;SDS011;6031;50.220;10.122;2023-04-25T14:28:22;4.33;;;2.13;;
11943;SDS011;6031;50.220;10.122;2023-04-25T14:30:48;6.30;;;2.90;;
11943;SDS011;6031;50.220;10.122;2023-04-25T14:33:13;5.27;;;2.60;;
11943;SDS011;6031;50.220;10.122;2023-04-25T14:35:38;4.37;;;2.50;;
11943;SDS011;6031;50.220;10.122;2023-04-25T14:38:04;2.93;;;2.60;;
11943;SDS011;6031;50.220;10.122;2023-04-25T14:40:30;5.20;;;2.03;;
11943;SDS011;6031;50.220;10.122;2023-04-25T14:42:55;5.70;;;2.20;;
11943;SDS011;6031;50.220;10.122;2023-04-25T14:45:21;3.77;;;1.97;;
11943;SDS011;6031;50.220;10.122;2023-04-25T14:47:47;3.30;;;1.83;;
11943;SDS011;6031;50.220;10.122;2023-04-25T14:50:12;2.50;;;1.73;;
11943;SDS011;6031;50.220;10.122;2023-04-25T14:52:38;3.07;;;1.80;;
11943;SDS011;6031;50.220;10.122;2023-04-25T14:55:03;4.00;;;2.53;;
11943;SDS011;6031;50.220;10.122;2023-04-25T14:57:30;3.23;;;2.13;;